sensor_id;sensor_type;location;lat;lon;timestamp;temperature;humidity
42979;DHT22;28616;44.746;19.678;2022-10-16T00:00:35;12.90;99.90
42979;DHT22;28616;44.746;19.678;2022-10-16T00:03:02;12.90;99.90
42979;DHT22;28616;44.746;19.678;2022-10-16T00:05:28;12.90;99.90
42979;DHT22;28616;44.746;19.678;2022-10-16T00:07:54;12.90;99.90
42979;DHT22;28616;44.746;19.678;2022-10-16T00:10:20;12.90;99.90
42979;DHT22;28616;44.746;19.678;2022-10-16T00:12:46;12.90;99.90
42979;DHT22;28616;44.746;19.678;2022-10-16T00:15:12;12.90;99.90
42979;DHT22;28616;44.746;19.678;2022-10-16T00:17:38;12.90;99.90
42979;DHT22;28616;44.746;19.678;2022-10-16T00:20:04;12.80;99.90
42979;DHT22;28616;44.746;19.678;2022-10-16T00:22:30;12.70;99.90
42979;DHT22;28616;44.746;19.678;2022-10-16T00:24:56;12.70;99.90
42979;DHT22;28616;44.746;19.678;2022-10-16T00:27:22;12.70;99.90
42979;DHT22;28616;44.746;19.678;2022-10-16T00:29:52;12.70;99.90
42979;DHT22;28616;44.746;19.678;2022-10-16T00:32:19;12.70;99.90
42979;DHT22;28616;44.746;19.678;2022-10-16T00:34:45;12.70;99.90
42979;DHT22;28616;44.746;19.678;2022-10-16T00:37:11;12.70;99.90
42979;DHT22;28616;44.746;19.678;2022-10-16T00:39:37;12.70;99.90
42979;DHT22;28616;44.746;19.678;2022-10-16T00:42:03;12.70;99.90
42979;DHT22;28616;44.746;19.678;2022-10-16T00:47:19;12.60;99.90
42979;DHT22;28616;44.746;19.678;2022-10-16T00:49:47;12.60;99.90
42979;DHT22;28616;44.746;19.678;2022-10-16T00:52:14;12.60;99.90
42979;DHT22;28616;44.746;19.678;2022-10-16T00:54:40;12.50;99.90
42979;DHT22;28616;44.746;19.678;2022-10-16T00:57:08;12.50;99.90
42979;DHT22;28616;44.746;19.678;2022-10-16T00:59:37;12.50;99.90
42979;DHT22;28616;44.746;19.678;2022-10-16T01:02:08;12.40;99.90
42979;DHT22;28616;44.746;19.678;2022-10-16T01:04:41;12.40;99.90
42979;DHT22;28616;44.746;19.678;2022-10-16T01:12:23;12.30;99.90
42979;DHT22;28616;44.746;19.678;2022-10-16T01:14:54;12.30;99.90
42979;DHT22;28616;44.746;19.678;2022-10-16T01:17:39;12.20;99.90
42979;DHT22;28616;44.746;19.678;2022-10-16T01:20:17;12.20;99.90
42979;DHT22;28616;44.746;19.678;2022-10-16T01:28:14;12.20;99.90
42979;DHT22;28616;44.746;19.678;2022-10-16T01:30:42;12.10;99.90
42979;DHT22;28616;44.746;19.678;2022-10-16T01:33:19;12.10;99.90
42979;DHT22;28616;44.746;19.678;2022-10-16T01:35:54;12.00;99.90
42979;DHT22;28616;44.746;19.678;2022-10-16T01:38:34;12.00;99.90
42979;DHT22;28616;44.746;19.678;2022-10-16T01:41:38;12.00;99.90
42979;DHT22;28616;44.746;19.678;2022-10-16T01:46:27;11.90;99.90
42979;DHT22;28616;44.746;19.678;2022-10-16T01:48:54;11.80;99.90
42979;DHT22;28616;44.746;19.678;2022-10-16T01:51:22;11.80;99.90
42979;DHT22;28616;44.746;19.678;2022-10-16T01:53:53;11.70;99.90
42979;DHT22;28616;44.746;19.678;2022-10-16T01:56:20;11.70;99.90
42979;DHT22;28616;44.746;19.678;2022-10-16T01:59:05;11.70;99.90
42979;DHT22;28616;44.746;19.678;2022-10-16T02:01:33;11.70;99.90
42979;DHT22;28616;44.746;19.678;2022-10-16T02:04:04;11.70;99.90
42979;DHT22;28616;44.746;19.678;2022-10-16T02:06:33;11.60;99.90
42979;DHT22;28616;44.746;19.678;2022-10-16T02:08:59;11.70;99.90
42979;DHT22;28616;44.746;19.678;2022-10-16T02:11:25;11.70;99.90
42979;DHT22;28616;44.746;19.678;2022-10-16T02:13:55;11.70;99.90
42979;DHT22;28616;44.746;19.678;2022-10-16T02:16:35;11.70;99.90
42979;DHT22;28616;44.746;19.678;2022-10-16T02:19:02;11.70;99.90
42979;DHT22;28616;44.746;19.678;2022-10-16T02:21:42;11.70;99.90
42979;DHT22;28616;44.746;19.678;2022-10-16T02:26:46;11.70;99.90
42979;DHT22;28616;44.746;19.678;2022-10-16T02:29:17;11.70;99.90
42979;DHT22;28616;44.746;19.678;2022-10-16T02:31:57;11.60;99.90
42979;DHT22;28616;44.746;19.678;2022-10-16T02:34:25;11.50;99.90
42979;DHT22;28616;44.746;19.678;2022-10-16T02:36:53;11.50;99.90
42979;DHT22;28616;44.746;19.678;2022-10-16T02:39:20;11.40;99.90
42979;DHT22;28616;44.746;19.678;2022-10-16T02:41:47;11.40;99.90
42979;DHT22;28616;44.746;19.678;2022-10-16T02:44:13;11.40;99.90
42979;DHT22;28616;44.746;19.678;2022-10-16T02:46:39;11.30;99.90
42979;DHT22;28616;44.746;19.678;2022-10-16T02:49:05;11.20;99.90
42979;DHT22;28616;44.746;19.678;2022-10-16T02:51:30;11.20;99.90
42979;DHT22;28616;44.746;19.678;2022-10-16T02:53:56;11.20;99.90
42979;DHT22;28616;44.746;19.678;2022-10-16T02:56:22;11.20;99.90
42979;DHT22;28616;44.746;19.678;2022-10-16T02:58:48;11.10;99.90
42979;DHT22;28616;44.746;19.678;2022-10-16T03:01:13;11.10;99.90
42979;DHT22;28616;44.746;19.678;2022-10-16T03:03:42;11.00;99.90
42979;DHT22;28616;44.746;19.678;2022-10-16T03:06:08;11.00;99.90
42979;DHT22;28616;44.746;19.678;2022-10-16T03:08:34;10.90;99.90
42979;DHT22;28616;44.746;19.678;2022-10-16T03:11:00;10.90;99.90
42979;DHT22;28616;44.746;19.678;2022-10-16T03:13:25;10.90;99.90
42979;DHT22;28616;44.746;19.678;2022-10-16T03:15:51;10.80;99.90
42979;DHT22;28616;44.746;19.678;2022-10-16T03:18:17;10.80;99.90
42979;DHT22;28616;44.746;19.678;2022-10-16T03:20:43;10.70;99.90
42979;DHT22;28616;44.746;19.678;2022-10-16T03:23:09;10.70;99.90
42979;DHT22;28616;44.746;19.678;2022-10-16T03:25:35;10.70;99.90
42979;DHT22;28616;44.746;19.678;2022-10-16T03:28:01;10.60;99.90
42979;DHT22;28616;44.746;19.678;2022-10-16T03:30:27;10.60;99.90
42979;DHT22;28616;44.746;19.678;2022-10-16T03:32:53;10.60;99.90
42979;DHT22;28616;44.746;19.678;2022-10-16T03:35:23;10.50;99.90
42979;DHT22;28616;44.746;19.678;2022-10-16T03:37:50;10.50;99.90
42979;DHT22;28616;44.746;19.678;2022-10-16T03:40:16;10.50;99.90
42979;DHT22;28616;44.746;19.678;2022-10-16T03:42:43;10.50;99.90
42979;DHT22;28616;44.746;19.678;2022-10-16T03:45:10;10.50;99.90
42979;DHT22;28616;44.746;19.678;2022-10-16T03:47:36;10.50;99.90
42979;DHT22;28616;44.746;19.678;2022-10-16T03:50:02;10.40;99.90
42979;DHT22;28616;44.746;19.678;2022-10-16T03:52:28;10.40;99.90
42979;DHT22;28616;44.746;19.678;2022-10-16T03:54:54;10.40;99.90
42979;DHT22;28616;44.746;19.678;2022-10-16T03:57:20;10.40;99.90
42979;DHT22;28616;44.746;19.678;2022-10-16T03:59:46;10.40;99.90
42979;DHT22;28616;44.746;19.678;2022-10-16T04:02:12;10.40;99.90
42979;DHT22;28616;44.746;19.678;2022-10-16T04:04:37;10.40;99.90
42979;DHT22;28616;44.746;19.678;2022-10-16T04:07:03;10.40;99.90
42979;DHT22;28616;44.746;19.678;2022-10-16T04:09:29;10.30;99.90
42979;DHT22;28616;44.746;19.678;2022-10-16T04:11:55;10.40;99.90
42979;DHT22;28616;44.746;19.678;2022-10-16T04:14:20;10.40;99.90
42979;DHT22;28616;44.746;19.678;2022-10-16T04:16:46;10.40;99.90
42979;DHT22;28616;44.746;19.678;2022-10-16T04:19:12;10.30;99.90
42979;DHT22;28616;44.746;19.678;2022-10-16T04:21:38;10.30;99.90
42979;DHT22;28616;44.746;19.678;2022-10-16T04:24:04;10.30;99.90
42979;DHT22;28616;44.746;19.678;2022-10-16T04:26:30;10.30;99.90
42979;DHT22;28616;44.746;19.678;2022-10-16T04:28:56;10.30;99.90
42979;DHT22;28616;44.746;19.678;2022-10-16T04:31:22;10.20;99.90
42979;DHT22;28616;44.746;19.678;2022-10-16T04:33:48;10.20;99.90
42979;DHT22;28616;44.746;19.678;2022-10-16T04:36:13;10.20;99.90
42979;DHT22;28616;44.746;19.678;2022-10-16T04:38:39;10.20;99.90
42979;DHT22;28616;44.746;19.678;2022-10-16T04:41:06;10.20;99.90
42979;DHT22;28616;44.746;19.678;2022-10-16T04:43:33;10.20;99.90
42979;DHT22;28616;44.746;19.678;2022-10-16T04:45:59;10.20;99.90
42979;DHT22;28616;44.746;19.678;2022-10-16T04:48:25;10.20;99.90
42979;DHT22;28616;44.746;19.678;2022-10-16T04:50:51;10.10;99.90
42979;DHT22;28616;44.746;19.678;2022-10-16T04:53:16;10.10;99.90
42979;DHT22;28616;44.746;19.678;2022-10-16T04:55:43;10.00;99.90
42979;DHT22;28616;44.746;19.678;2022-10-16T04:58:09;10.00;99.90
42979;DHT22;28616;44.746;19.678;2022-10-16T05:00:35;10.00;99.90
42979;DHT22;28616;44.746;19.678;2022-10-16T05:03:01;10.00;99.90
42979;DHT22;28616;44.746;19.678;2022-10-16T05:05:31;10.00;99.90
42979;DHT22;28616;44.746;19.678;2022-10-16T05:07:57;10.00;99.90
42979;DHT22;28616;44.746;19.678;2022-10-16T05:10:23;10.00;99.90
42979;DHT22;28616;44.746;19.678;2022-10-16T05:12:48;10.00;99.90
42979;DHT22;28616;44.746;19.678;2022-10-16T05:15:15;10.00;99.90
42979;DHT22;28616;44.746;19.678;2022-10-16T05:17:41;10.00;99.90
42979;DHT22;28616;44.746;19.678;2022-10-16T05:20:07;10.00;99.90
42979;DHT22;28616;44.746;19.678;2022-10-16T05:22:32;10.00;99.90
42979;DHT22;28616;44.746;19.678;2022-10-16T05:24:58;10.00;99.90
42979;DHT22;28616;44.746;19.678;2022-10-16T05:27:24;9.90;99.90
42979;DHT22;28616;44.746;19.678;2022-10-16T05:29:50;9.90;99.90
42979;DHT22;28616;44.746;19.678;2022-10-16T05:32:17;9.90;99.90
42979;DHT22;28616;44.746;19.678;2022-10-16T05:34:43;9.90;99.90
42979;DHT22;28616;44.746;19.678;2022-10-16T05:37:09;10.00;99.90
42979;DHT22;28616;44.746;19.678;2022-10-16T05:39:37;10.00;99.90
42979;DHT22;28616;44.746;19.678;2022-10-16T05:42:03;10.10;99.90
42979;DHT22;28616;44.746;19.678;2022-10-16T05:44:29;10.10;99.90
42979;DHT22;28616;44.746;19.678;2022-10-16T05:46:55;10.10;99.90
42979;DHT22;28616;44.746;19.678;2022-10-16T05:49:21;10.10;99.90
42979;DHT22;28616;44.746;19.678;2022-10-16T05:51:46;10.10;99.90
42979;DHT22;28616;44.746;19.678;2022-10-16T05:54:12;10.10;99.90
42979;DHT22;28616;44.746;19.678;2022-10-16T05:56:38;10.10;99.90
42979;DHT22;28616;44.746;19.678;2022-10-16T05:59:04;10.10;99.90
42979;DHT22;28616;44.746;19.678;2022-10-16T06:01:30;10.10;99.90
42979;DHT22;28616;44.746;19.678;2022-10-16T06:03:57;10.20;99.90
42979;DHT22;28616;44.746;19.678;2022-10-16T06:06:24;10.30;99.90
42979;DHT22;28616;44.746;19.678;2022-10-16T06:08:52;10.30;99.90
42979;DHT22;28616;44.746;19.678;2022-10-16T06:11:20;10.40;99.90
42979;DHT22;28616;44.746;19.678;2022-10-16T06:13:54;10.50;99.90
42979;DHT22;28616;44.746;19.678;2022-10-16T06:16:20;10.50;99.90
42979;DHT22;28616;44.746;19.678;2022-10-16T06:18:46;10.60;99.90
42979;DHT22;28616;44.746;19.678;2022-10-16T06:21:21;10.70;99.90
42979;DHT22;28616;44.746;19.678;2022-10-16T06:23:47;10.80;99.90
42979;DHT22;28616;44.746;19.678;2022-10-16T06:26:16;10.90;99.90
42979;DHT22;28616;44.746;19.678;2022-10-16T06:28:42;11.00;99.90
42979;DHT22;28616;44.746;19.678;2022-10-16T06:31:09;11.10;99.90
42979;DHT22;28616;44.746;19.678;2022-10-16T06:33:36;11.30;99.90
42979;DHT22;28616;44.746;19.678;2022-10-16T06:36:10;11.40;99.90
42979;DHT22;28616;44.746;19.678;2022-10-16T06:38:37;11.60;99.90
42979;DHT22;28616;44.746;19.678;2022-10-16T06:41:04;11.70;99.90
42979;DHT22;28616;44.746;19.678;2022-10-16T06:43:30;11.80;99.90
42979;DHT22;28616;44.746;19.678;2022-10-16T06:46:04;12.00;99.90
42979;DHT22;28616;44.746;19.678;2022-10-16T06:48:30;12.10;99.90
42979;DHT22;28616;44.746;19.678;2022-10-16T06:53:33;12.30;99.90
42979;DHT22;28616;44.746;19.678;2022-10-16T06:56:10;12.40;99.90
42979;DHT22;28616;44.746;19.678;2022-10-16T06:58:36;12.50;99.90
42979;DHT22;28616;44.746;19.678;2022-10-16T07:01:03;12.60;99.90
42979;DHT22;28616;44.746;19.678;2022-10-16T07:03:28;12.60;99.90
42979;DHT22;28616;44.746;19.678;2022-10-16T07:05:54;12.70;99.90
42979;DHT22;28616;44.746;19.678;2022-10-16T07:08:20;12.80;99.90
42979;DHT22;28616;44.746;19.678;2022-10-16T07:10:46;12.80;99.90
42979;DHT22;28616;44.746;19.678;2022-10-16T07:13:11;12.80;99.90
42979;DHT22;28616;44.746;19.678;2022-10-16T07:15:40;12.90;99.90
42979;DHT22;28616;44.746;19.678;2022-10-16T07:18:06;13.00;99.90
42979;DHT22;28616;44.746;19.678;2022-10-16T07:20:32;13.00;99.90
42979;DHT22;28616;44.746;19.678;2022-10-16T07:22:58;13.10;99.90
42979;DHT22;28616;44.746;19.678;2022-10-16T07:25:24;13.20;99.90
42979;DHT22;28616;44.746;19.678;2022-10-16T07:27:49;13.40;99.90
42979;DHT22;28616;44.746;19.678;2022-10-16T07:30:15;13.40;99.90
42979;DHT22;28616;44.746;19.678;2022-10-16T07:32:41;13.50;99.90
42979;DHT22;28616;44.746;19.678;2022-10-16T07:35:07;13.70;99.90
42979;DHT22;28616;44.746;19.678;2022-10-16T07:37:33;13.80;99.90
42979;DHT22;28616;44.746;19.678;2022-10-16T07:39:59;14.00;99.90
42979;DHT22;28616;44.746;19.678;2022-10-16T07:42:25;14.10;99.90
42979;DHT22;28616;44.746;19.678;2022-10-16T07:44:50;14.30;99.90
42979;DHT22;28616;44.746;19.678;2022-10-16T07:47:16;14.40;99.90
42979;DHT22;28616;44.746;19.678;2022-10-16T07:49:42;14.50;99.90
42979;DHT22;28616;44.746;19.678;2022-10-16T07:52:07;14.50;99.90
42979;DHT22;28616;44.746;19.678;2022-10-16T07:54:33;14.60;99.90
42979;DHT22;28616;44.746;19.678;2022-10-16T07:56:59;14.70;99.90
42979;DHT22;28616;44.746;19.678;2022-10-16T07:59:25;14.80;99.90
42979;DHT22;28616;44.746;19.678;2022-10-16T08:01:51;14.90;99.90
42979;DHT22;28616;44.746;19.678;2022-10-16T08:04:16;14.90;99.90
42979;DHT22;28616;44.746;19.678;2022-10-16T08:06:42;15.00;99.90
42979;DHT22;28616;44.746;19.678;2022-10-16T08:09:10;15.10;99.90
42979;DHT22;28616;44.746;19.678;2022-10-16T08:11:35;15.20;99.90
42979;DHT22;28616;44.746;19.678;2022-10-16T08:14:01;15.30;99.90
42979;DHT22;28616;44.746;19.678;2022-10-16T08:16:27;15.50;99.90
42979;DHT22;28616;44.746;19.678;2022-10-16T08:18:53;15.50;99.90
42979;DHT22;28616;44.746;19.678;2022-10-16T08:21:21;15.60;99.90
42979;DHT22;28616;44.746;19.678;2022-10-16T08:23:49;15.70;99.90
42979;DHT22;28616;44.746;19.678;2022-10-16T08:26:15;15.80;99.90
42979;DHT22;28616;44.746;19.678;2022-10-16T08:28:41;15.90;99.90
42979;DHT22;28616;44.746;19.678;2022-10-16T08:31:13;16.00;99.90
42979;DHT22;28616;44.746;19.678;2022-10-16T08:33:40;16.00;99.90
42979;DHT22;28616;44.746;19.678;2022-10-16T08:36:06;16.10;99.90
42979;DHT22;28616;44.746;19.678;2022-10-16T08:38:33;16.10;99.90
42979;DHT22;28616;44.746;19.678;2022-10-16T08:47:17;16.50;99.90
42979;DHT22;28616;44.746;19.678;2022-10-16T08:49:55;16.70;99.90
42979;DHT22;28616;44.746;19.678;2022-10-16T08:52:22;16.90;99.90
42979;DHT22;28616;44.746;19.678;2022-10-16T08:54:51;17.00;99.90
42979;DHT22;28616;44.746;19.678;2022-10-16T08:57:22;17.10;99.90
42979;DHT22;28616;44.746;19.678;2022-10-16T08:59:48;17.30;99.90
42979;DHT22;28616;44.746;19.678;2022-10-16T09:02:30;17.30;99.90
42979;DHT22;28616;44.746;19.678;2022-10-16T09:05:31;17.30;99.90
42979;DHT22;28616;44.746;19.678;2022-10-16T09:10:50;17.80;99.90
42979;DHT22;28616;44.746;19.678;2022-10-16T09:13:33;18.00;99.90
42979;DHT22;28616;44.746;19.678;2022-10-16T09:16:22;18.10;99.90
42979;DHT22;28616;44.746;19.678;2022-10-16T09:18:54;18.10;99.90
42979;DHT22;28616;44.746;19.678;2022-10-16T09:21:26;18.30;99.90
42979;DHT22;28616;44.746;19.678;2022-10-16T09:23:54;18.40;99.90
42979;DHT22;28616;44.746;19.678;2022-10-16T09:26:23;18.50;99.90
42979;DHT22;28616;44.746;19.678;2022-10-16T09:28:48;18.70;99.90
42979;DHT22;28616;44.746;19.678;2022-10-16T09:31:19;18.80;99.90
42979;DHT22;28616;44.746;19.678;2022-10-16T09:33:50;19.00;99.90
42979;DHT22;28616;44.746;19.678;2022-10-16T09:36:19;19.20;99.90
42979;DHT22;28616;44.746;19.678;2022-10-16T09:38:45;19.40;99.90
42979;DHT22;28616;44.746;19.678;2022-10-16T09:41:21;19.50;99.10
42979;DHT22;28616;44.746;19.678;2022-10-16T09:43:55;19.60;97.40
42979;DHT22;28616;44.746;19.678;2022-10-16T09:46:35;19.80;99.90
42979;DHT22;28616;44.746;19.678;2022-10-16T09:49:23;20.00;98.60
42979;DHT22;28616;44.746;19.678;2022-10-16T09:51:49;20.20;94.50
42979;DHT22;28616;44.746;19.678;2022-10-16T09:54:17;20.50;94.80
42979;DHT22;28616;44.746;19.678;2022-10-16T09:56:43;20.50;91.70
42979;DHT22;28616;44.746;19.678;2022-10-16T09:59:16;20.80;92.00
42979;DHT22;28616;44.746;19.678;2022-10-16T10:01:51;20.80;91.10
42979;DHT22;28616;44.746;19.678;2022-10-16T10:04:22;20.90;92.00
42979;DHT22;28616;44.746;19.678;2022-10-16T10:06:53;21.10;92.60
42979;DHT22;28616;44.746;19.678;2022-10-16T10:09:37;21.30;90.30
42979;DHT22;28616;44.746;19.678;2022-10-16T10:12:05;21.10;90.00
42979;DHT22;28616;44.746;19.678;2022-10-16T10:14:40;21.30;87.60
42979;DHT22;28616;44.746;19.678;2022-10-16T10:20:01;21.50;88.80
42979;DHT22;28616;44.746;19.678;2022-10-16T10:22:45;21.60;82.00
42979;DHT22;28616;44.746;19.678;2022-10-16T10:36:12;22.20;76.30
42979;DHT22;28616;44.746;19.678;2022-10-16T10:38:50;22.20;78.90
42979;DHT22;28616;44.746;19.678;2022-10-16T10:47:00;22.50;77.00
42979;DHT22;28616;44.746;19.678;2022-10-16T10:52:31;22.40;74.30
42979;DHT22;28616;44.746;19.678;2022-10-16T10:55:42;22.50;71.50
42979;DHT22;28616;44.746;19.678;2022-10-16T10:58:21;22.60;72.60
42979;DHT22;28616;44.746;19.678;2022-10-16T11:06:18;22.90;72.50
42979;DHT22;28616;44.746;19.678;2022-10-16T13:16:33;23.30;60.60
42979;DHT22;28616;44.746;19.678;2022-10-16T13:22:10;23.30;60.80
42979;DHT22;28616;44.746;19.678;2022-10-16T13:25:02;23.20;61.60
42979;DHT22;28616;44.746;19.678;2022-10-16T13:30:19;22.80;60.50
42979;DHT22;28616;44.746;19.678;2022-10-16T13:33:02;22.80;60.10
42979;DHT22;28616;44.746;19.678;2022-10-16T13:35:32;22.70;61.60
42979;DHT22;28616;44.746;19.678;2022-10-16T13:40:30;22.40;61.80
42979;DHT22;28616;44.746;19.678;2022-10-16T13:42:56;22.10;60.50
42979;DHT22;28616;44.746;19.678;2022-10-16T13:45:25;21.90;61.80
42979;DHT22;28616;44.746;19.678;2022-10-16T13:48:02;21.80;64.50
42979;DHT22;28616;44.746;19.678;2022-10-16T13:50:28;21.60;60.70
42979;DHT22;28616;44.746;19.678;2022-10-16T13:53:04;21.50;64.10
42979;DHT22;28616;44.746;19.678;2022-10-16T13:55:31;21.40;62.10
42979;DHT22;28616;44.746;19.678;2022-10-16T13:58:14;21.30;61.20
42979;DHT22;28616;44.746;19.678;2022-10-16T14:00:52;21.10;62.20
42979;DHT22;28616;44.746;19.678;2022-10-16T14:03:20;21.10;63.80
42979;DHT22;28616;44.746;19.678;2022-10-16T14:05:52;20.90;66.10
42979;DHT22;28616;44.746;19.678;2022-10-16T14:08:18;20.80;66.10
42979;DHT22;28616;44.746;19.678;2022-10-16T14:10:51;20.80;66.70
42979;DHT22;28616;44.746;19.678;2022-10-16T14:13:28;20.80;66.50
42979;DHT22;28616;44.746;19.678;2022-10-16T14:15:54;20.70;65.40
42979;DHT22;28616;44.746;19.678;2022-10-16T14:18:24;20.70;66.90
42979;DHT22;28616;44.746;19.678;2022-10-16T14:20:51;20.60;67.30
42979;DHT22;28616;44.746;19.678;2022-10-16T14:23:31;20.60;68.40
42979;DHT22;28616;44.746;19.678;2022-10-16T14:28:39;20.40;66.60
42979;DHT22;28616;44.746;19.678;2022-10-16T14:33:50;20.40;67.30
42979;DHT22;28616;44.746;19.678;2022-10-16T14:36:16;20.30;67.00
42979;DHT22;28616;44.746;19.678;2022-10-16T14:39:00;20.30;69.20
42979;DHT22;28616;44.746;19.678;2022-10-16T14:41:28;20.20;68.10
42979;DHT22;28616;44.746;19.678;2022-10-16T14:43:56;20.20;68.70
42979;DHT22;28616;44.746;19.678;2022-10-16T14:46:31;20.10;68.60
42979;DHT22;28616;44.746;19.678;2022-10-16T14:49:15;20.10;67.50
42979;DHT22;28616;44.746;19.678;2022-10-16T14:51:42;20.10;69.20
42979;DHT22;28616;44.746;19.678;2022-10-16T14:54:14;20.10;68.20
42979;DHT22;28616;44.746;19.678;2022-10-16T14:56:58;20.00;69.20
42979;DHT22;28616;44.746;19.678;2022-10-16T14:59:39;19.90;71.00
42979;DHT22;28616;44.746;19.678;2022-10-16T15:04:46;19.80;66.90
42979;DHT22;28616;44.746;19.678;2022-10-16T15:07:12;19.80;69.10
42979;DHT22;28616;44.746;19.678;2022-10-16T15:09:37;19.70;69.80
42979;DHT22;28616;44.746;19.678;2022-10-16T15:12:03;19.60;72.60
42979;DHT22;28616;44.746;19.678;2022-10-16T15:14:29;19.50;71.10
42979;DHT22;28616;44.746;19.678;2022-10-16T15:16:55;19.40;72.40
42979;DHT22;28616;44.746;19.678;2022-10-16T15:19:21;19.30;72.90
42979;DHT22;28616;44.746;19.678;2022-10-16T15:21:47;19.30;73.80
42979;DHT22;28616;44.746;19.678;2022-10-16T15:24:13;19.20;73.30
42979;DHT22;28616;44.746;19.678;2022-10-16T15:26:39;19.20;75.90
42979;DHT22;28616;44.746;19.678;2022-10-16T15:29:05;19.10;77.30
42979;DHT22;28616;44.746;19.678;2022-10-16T15:31:32;19.10;78.20
42979;DHT22;28616;44.746;19.678;2022-10-16T15:33:58;19.00;83.00
42979;DHT22;28616;44.746;19.678;2022-10-16T15:36:31;18.90;85.60
42979;DHT22;28616;44.746;19.678;2022-10-16T15:38:59;18.80;90.30
42979;DHT22;28616;44.746;19.678;2022-10-16T15:41:26;18.80;92.30
42979;DHT22;28616;44.746;19.678;2022-10-16T15:43:52;18.70;94.10
42979;DHT22;28616;44.746;19.678;2022-10-16T15:46:20;18.60;96.90
42979;DHT22;28616;44.746;19.678;2022-10-16T15:48:47;18.60;98.30
42979;DHT22;28616;44.746;19.678;2022-10-16T15:51:13;18.50;99.90
42979;DHT22;28616;44.746;19.678;2022-10-16T15:53:40;18.40;99.90
42979;DHT22;28616;44.746;19.678;2022-10-16T15:56:07;18.30;99.90
42979;DHT22;28616;44.746;19.678;2022-10-16T15:58:34;18.30;99.90
42979;DHT22;28616;44.746;19.678;2022-10-16T16:01:01;18.20;99.90
42979;DHT22;28616;44.746;19.678;2022-10-16T16:03:28;18.20;99.90
42979;DHT22;28616;44.746;19.678;2022-10-16T16:05:54;18.10;99.90
42979;DHT22;28616;44.746;19.678;2022-10-16T16:08:20;18.00;99.90
42979;DHT22;28616;44.746;19.678;2022-10-16T16:10:56;18.00;99.90
42979;DHT22;28616;44.746;19.678;2022-10-16T16:13:22;17.90;99.90
42979;DHT22;28616;44.746;19.678;2022-10-16T16:15:48;17.80;99.90
42979;DHT22;28616;44.746;19.678;2022-10-16T16:18:13;17.70;99.90
42979;DHT22;28616;44.746;19.678;2022-10-16T16:20:39;17.60;99.90
42979;DHT22;28616;44.746;19.678;2022-10-16T16:23:06;17.50;99.90
42979;DHT22;28616;44.746;19.678;2022-10-16T16:25:31;17.40;99.90
42979;DHT22;28616;44.746;19.678;2022-10-16T16:27:57;17.40;99.90
42979;DHT22;28616;44.746;19.678;2022-10-16T16:30:23;17.30;99.90
42979;DHT22;28616;44.746;19.678;2022-10-16T16:32:49;17.20;99.90
42979;DHT22;28616;44.746;19.678;2022-10-16T16:35:14;17.20;99.90
42979;DHT22;28616;44.746;19.678;2022-10-16T16:37:40;17.10;99.90
42979;DHT22;28616;44.746;19.678;2022-10-16T16:40:06;17.00;99.90
42979;DHT22;28616;44.746;19.678;2022-10-16T16:42:32;17.00;99.90
42979;DHT22;28616;44.746;19.678;2022-10-16T16:44:58;16.90;99.90
42979;DHT22;28616;44.746;19.678;2022-10-16T16:47:24;16.80;99.90
42979;DHT22;28616;44.746;19.678;2022-10-16T16:49:50;16.80;99.90
42979;DHT22;28616;44.746;19.678;2022-10-16T16:52:17;16.70;99.90
42979;DHT22;28616;44.746;19.678;2022-10-16T16:54:43;16.60;99.90
42979;DHT22;28616;44.746;19.678;2022-10-16T16:57:10;16.50;99.90
42979;DHT22;28616;44.746;19.678;2022-10-16T16:59:36;16.50;99.90
42979;DHT22;28616;44.746;19.678;2022-10-16T17:02:02;16.40;99.90
42979;DHT22;28616;44.746;19.678;2022-10-16T17:04:28;16.40;99.90
42979;DHT22;28616;44.746;19.678;2022-10-16T17:06:54;16.30;99.90
42979;DHT22;28616;44.746;19.678;2022-10-16T17:09:21;16.30;99.90
42979;DHT22;28616;44.746;19.678;2022-10-16T17:11:47;16.20;99.90
42979;DHT22;28616;44.746;19.678;2022-10-16T17:14:14;16.20;99.90
42979;DHT22;28616;44.746;19.678;2022-10-16T17:16:40;16.10;99.90
42979;DHT22;28616;44.746;19.678;2022-10-16T17:19:12;16.10;99.90
42979;DHT22;28616;44.746;19.678;2022-10-16T17:21:39;16.00;99.90
42979;DHT22;28616;44.746;19.678;2022-10-16T17:24:05;16.00;99.90
42979;DHT22;28616;44.746;19.678;2022-10-16T17:26:31;15.90;99.90
42979;DHT22;28616;44.746;19.678;2022-10-16T17:29:00;15.90;99.90
42979;DHT22;28616;44.746;19.678;2022-10-16T17:31:29;15.80;99.90
42979;DHT22;28616;44.746;19.678;2022-10-16T17:33:57;15.80;99.90
42979;DHT22;28616;44.746;19.678;2022-10-16T17:36:23;15.70;99.90
42979;DHT22;28616;44.746;19.678;2022-10-16T17:38:49;15.70;99.90
42979;DHT22;28616;44.746;19.678;2022-10-16T17:41:23;15.60;99.90
42979;DHT22;28616;44.746;19.678;2022-10-16T17:43:50;15.60;99.90
42979;DHT22;28616;44.746;19.678;2022-10-16T17:46:18;15.60;99.90
42979;DHT22;28616;44.746;19.678;2022-10-16T17:48:46;15.50;99.90
42979;DHT22;28616;44.746;19.678;2022-10-16T17:51:15;15.50;99.90
42979;DHT22;28616;44.746;19.678;2022-10-16T17:53:41;15.40;99.90
42979;DHT22;28616;44.746;19.678;2022-10-16T17:56:12;15.40;99.90
42979;DHT22;28616;44.746;19.678;2022-10-16T17:58:39;15.30;99.90
42979;DHT22;28616;44.746;19.678;2022-10-16T18:01:26;15.30;99.90
42979;DHT22;28616;44.746;19.678;2022-10-16T18:03:54;15.30;99.90
42979;DHT22;28616;44.746;19.678;2022-10-16T18:06:21;15.20;99.90
42979;DHT22;28616;44.746;19.678;2022-10-16T18:08:47;15.20;99.90
42979;DHT22;28616;44.746;19.678;2022-10-16T18:11:13;15.20;99.90
42979;DHT22;28616;44.746;19.678;2022-10-16T18:13:38;15.10;99.90
42979;DHT22;28616;44.746;19.678;2022-10-16T18:16:10;15.10;99.90
42979;DHT22;28616;44.746;19.678;2022-10-16T18:18:37;15.10;99.90
42979;DHT22;28616;44.746;19.678;2022-10-16T18:21:06;15.10;99.90
42979;DHT22;28616;44.746;19.678;2022-10-16T18:23:35;15.00;99.90
42979;DHT22;28616;44.746;19.678;2022-10-16T18:26:02;15.00;99.90
42979;DHT22;28616;44.746;19.678;2022-10-16T18:28:28;15.00;99.90
42979;DHT22;28616;44.746;19.678;2022-10-16T18:31:02;14.90;99.90
42979;DHT22;28616;44.746;19.678;2022-10-16T18:33:29;14.90;99.90
42979;DHT22;28616;44.746;19.678;2022-10-16T18:36:00;14.80;99.90
42979;DHT22;28616;44.746;19.678;2022-10-16T18:38:26;14.80;99.90
42979;DHT22;28616;44.746;19.678;2022-10-16T18:40:51;14.80;99.90
42979;DHT22;28616;44.746;19.678;2022-10-16T18:43:17;14.70;99.90
42979;DHT22;28616;44.746;19.678;2022-10-16T18:45:43;14.70;99.90